createdAt,value
2019-03-19T00:00:35.267Z,2.00
2019-03-19T00:03:04.679Z,2.00
2019-03-19T00:05:34.027Z,2.00
2019-03-19T00:08:03.459Z,2.00
2019-03-19T00:10:32.775Z,2.00
2019-03-19T00:13:02.161Z,2.00
2019-03-19T00:15:31.566Z,2.00
2019-03-19T00:18:00.858Z,1.90
2019-03-19T00:20:30.264Z,1.90
2019-03-19T00:22:59.588Z,1.90
2019-03-19T00:25:30.350Z,1.90
2019-03-19T00:27:59.939Z,1.90
2019-03-19T00:30:29.276Z,1.80
2019-03-19T00:32:58.580Z,1.80
2019-03-19T00:35:27.919Z,1.70
2019-03-19T00:37:57.345Z,1.70
2019-03-19T00:40:26.684Z,1.70
2019-03-19T00:42:55.953Z,1.70
2019-03-19T00:45:25.348Z,1.70
2019-03-19T00:47:54.540Z,1.60
2019-03-19T00:50:23.790Z,1.60
2019-03-19T00:52:53.152Z,1.50
2019-03-19T00:55:22.562Z,1.40
2019-03-19T00:57:51.857Z,1.40
2019-03-19T01:00:21.500Z,1.30
2019-03-19T01:02:51.001Z,1.40
2019-03-19T01:05:20.499Z,1.30
2019-03-19T01:07:49.782Z,1.30
2019-03-19T01:10:19.128Z,1.30
2019-03-19T01:12:50.807Z,1.40
2019-03-19T01:15:20.252Z,1.40
2019-03-19T01:17:49.559Z,1.40
2019-03-19T01:20:18.947Z,1.40
2019-03-19T01:22:48.443Z,1.40
2019-03-19T01:25:18.789Z,1.40
2019-03-19T01:27:48.349Z,1.40
2019-03-19T01:30:17.592Z,1.40
2019-03-19T01:32:46.911Z,1.40
2019-03-19T01:35:16.427Z,1.40
2019-03-19T01:37:45.769Z,1.40
2019-03-19T01:40:15.092Z,1.40
2019-03-19T01:42:44.504Z,1.40
2019-03-19T01:45:14.253Z,1.50
2019-03-19T01:47:43.720Z,1.50
2019-03-19T01:50:13.037Z,1.50
2019-03-19T01:52:42.506Z,1.60
2019-03-19T01:55:12.307Z,1.60
2019-03-19T01:57:41.554Z,1.60
2019-03-19T02:00:11.359Z,1.60
2019-03-19T02:02:40.732Z,1.60
2019-03-19T02:05:10.152Z,1.50
2019-03-19T02:07:39.603Z,1.50
2019-03-19T02:10:09.583Z,1.40
2019-03-19T02:12:38.907Z,1.30
2019-03-19T02:15:09.320Z,1.20
2019-03-19T02:17:38.714Z,1.20
2019-03-19T02:20:09.996Z,1.20
2019-03-19T02:22:39.397Z,1.20
2019-03-19T02:25:09.533Z,1.30
2019-03-19T02:27:39.024Z,1.30
2019-03-19T02:30:10.369Z,1.30
2019-03-19T02:32:39.850Z,1.30
2019-03-19T02:35:09.276Z,1.20
2019-03-19T02:37:38.625Z,1.30
2019-03-19T02:40:08.680Z,1.30
2019-03-19T02:42:38.050Z,1.30
2019-03-19T02:45:07.673Z,1.30
2019-03-19T02:47:37.088Z,1.30
2019-03-19T02:50:06.955Z,1.20
2019-03-19T02:52:36.228Z,1.20
2019-03-19T02:55:05.992Z,1.20
2019-03-19T02:57:35.431Z,1.10
2019-03-19T03:00:06.013Z,1.00
2019-03-19T03:02:35.482Z,1.00
2019-03-19T03:05:05.386Z,1.00
2019-03-19T03:07:34.678Z,0.90
2019-03-19T03:10:04.753Z,0.90
2019-03-19T03:12:34.369Z,0.80
2019-03-19T03:15:04.198Z,0.70
2019-03-19T03:17:33.750Z,0.70
2019-03-19T03:20:03.370Z,0.60
2019-03-19T03:22:32.801Z,0.60
2019-03-19T03:25:02.291Z,0.60
2019-03-19T03:27:31.865Z,0.50
2019-03-19T03:30:01.256Z,0.50
2019-03-19T03:32:37.552Z,0.40
2019-03-19T03:35:07.529Z,0.40
2019-03-19T03:37:37.012Z,0.40
2019-03-19T03:40:07.848Z,0.40
2019-03-19T03:42:37.379Z,0.30
2019-03-19T03:45:08.144Z,0.30
2019-03-19T03:47:37.837Z,0.30
2019-03-19T03:50:08.094Z,0.30
2019-03-19T03:52:37.680Z,0.30
2019-03-19T03:55:07.826Z,0.20
2019-03-19T03:57:37.291Z,0.20
2019-03-19T04:00:09.161Z,0.20
2019-03-19T04:02:38.859Z,0.30
2019-03-19T04:05:08.407Z,0.30
2019-03-19T04:07:37.703Z,0.30
2019-03-19T04:10:08.441Z,0.30
2019-03-19T04:12:37.940Z,0.40
2019-03-19T04:15:08.041Z,0.40
2019-03-19T04:17:37.541Z,0.40
2019-03-19T04:20:07.439Z,0.40
2019-03-19T04:22:37.021Z,0.40
2019-03-19T04:25:06.666Z,0.40
2019-03-19T04:27:36.198Z,0.40
2019-03-19T04:30:07.325Z,0.30
2019-03-19T04:32:36.725Z,0.30
2019-03-19T04:35:06.822Z,0.30
2019-03-19T04:37:36.488Z,0.30
2019-03-19T04:40:07.383Z,0.30
2019-03-19T04:42:36.926Z,0.30
2019-03-19T04:45:06.703Z,0.20
2019-03-19T04:47:36.241Z,0.30
2019-03-19T04:50:06.892Z,0.30
2019-03-19T04:52:36.371Z,0.30
2019-03-19T04:55:06.176Z,0.30
2019-03-19T04:57:35.801Z,0.40
2019-03-19T05:00:05.806Z,0.40
2019-03-19T05:02:35.155Z,0.40
2019-03-19T05:05:05.188Z,0.50
2019-03-19T05:07:35.907Z,0.50
2019-03-19T05:10:06.400Z,0.50
2019-03-19T05:12:35.848Z,0.50
2019-03-19T05:15:05.892Z,0.60
2019-03-19T05:17:35.591Z,0.50
2019-03-19T05:20:05.341Z,0.50
2019-03-19T05:22:34.759Z,0.50
2019-03-19T05:25:04.425Z,0.50
2019-03-19T05:27:37.713Z,0.50
2019-03-19T05:30:06.249Z,0.50
2019-03-19T05:32:35.788Z,0.60
2019-03-19T05:35:05.659Z,0.50
2019-03-19T05:37:35.444Z,0.60
2019-03-19T05:40:05.432Z,0.50
2019-03-19T05:42:34.971Z,0.50
2019-03-19T05:45:05.151Z,0.50
2019-03-19T05:47:38.256Z,0.60
2019-03-19T05:50:06.820Z,0.60
2019-03-19T05:52:36.155Z,0.70
2019-03-19T05:55:05.762Z,0.70
2019-03-19T05:57:35.263Z,0.80
2019-03-19T06:00:05.847Z,0.80
2019-03-19T06:02:35.131Z,0.80
2019-03-19T06:05:04.830Z,0.90
2019-03-19T06:07:34.136Z,0.90
2019-03-19T06:10:03.456Z,1.00
2019-03-19T06:12:32.886Z,1.00
2019-03-19T06:15:02.133Z,1.10
2019-03-19T06:17:31.529Z,1.10
2019-03-19T06:20:00.760Z,1.10
2019-03-19T06:22:30.072Z,1.20
2019-03-19T06:24:59.452Z,1.40
2019-03-19T06:27:28.790Z,1.60
2019-03-19T06:29:58.206Z,1.80
2019-03-19T06:32:27.601Z,2.00
2019-03-19T06:34:56.825Z,2.20
2019-03-19T06:37:26.224Z,2.40
2019-03-19T06:39:55.472Z,2.60
2019-03-19T06:42:24.742Z,2.80
2019-03-19T06:44:54.135Z,3.10
2019-03-19T06:47:23.423Z,3.20
2019-03-19T06:49:52.678Z,3.50
2019-03-19T06:52:22.032Z,3.80
2019-03-19T06:54:51.385Z,4.00
2019-03-19T06:57:20.683Z,4.30
2019-03-19T06:59:50.141Z,4.50
2019-03-19T07:02:19.518Z,4.90
2019-03-19T07:04:48.882Z,5.10
2019-03-19T07:07:18.092Z,5.20
2019-03-19T07:09:47.518Z,5.60
2019-03-19T07:12:16.850Z,6.00
2019-03-19T07:14:46.168Z,5.40
2019-03-19T07:17:15.583Z,5.40
2019-03-19T07:19:44.782Z,5.50
2019-03-19T07:22:14.078Z,5.60
2019-03-19T07:24:43.469Z,5.50
2019-03-19T07:27:12.830Z,6.20
2019-03-19T07:29:42.206Z,6.50
2019-03-19T07:32:11.548Z,6.50
2019-03-19T07:34:40.861Z,6.90
2019-03-19T07:37:10.213Z,7.20
2019-03-19T07:39:39.569Z,6.80
2019-03-19T07:42:08.903Z,6.50
2019-03-19T07:44:38.444Z,6.60
2019-03-19T07:47:07.702Z,6.70
2019-03-19T07:49:40.198Z,7.10
2019-03-19T07:52:09.562Z,7.10
2019-03-19T07:54:39.074Z,7.00
2019-03-19T07:57:08.118Z,7.10
2019-03-19T07:59:39.962Z,7.20
2019-03-19T08:02:09.238Z,7.20
2019-03-19T08:04:38.737Z,7.10
2019-03-19T08:07:08.007Z,7.20
2019-03-19T08:09:37.527Z,7.20
2019-03-19T08:12:06.888Z,7.60
2019-03-19T08:14:36.153Z,7.70
2019-03-19T08:17:05.522Z,8.10
2019-03-19T08:19:35.010Z,7.60
2019-03-19T08:22:04.285Z,8.00
2019-03-19T08:24:33.648Z,7.70
2019-03-19T08:27:02.935Z,8.00
2019-03-19T08:29:34.607Z,7.80
2019-03-19T08:32:03.303Z,7.60
2019-03-19T08:34:32.541Z,7.60
2019-03-19T08:37:01.946Z,8.20
2019-03-19T08:39:31.204Z,8.40
2019-03-19T08:42:00.558Z,8.50
2019-03-19T08:44:29.850Z,8.60
2019-03-19T08:46:59.157Z,9.20
2019-03-19T08:49:28.515Z,9.80
2019-03-19T08:51:57.904Z,10.10
2019-03-19T08:54:27.171Z,10.60
2019-03-19T08:56:56.530Z,10.30
2019-03-19T08:59:25.778Z,10.00
2019-03-19T09:01:55.087Z,10.20
2019-03-19T09:04:24.682Z,9.70
2019-03-19T09:06:53.906Z,9.60
2019-03-19T09:09:23.132Z,9.90
2019-03-19T09:11:52.484Z,10.40
2019-03-19T09:14:21.813Z,10.70
2019-03-19T09:16:51.147Z,10.10
2019-03-19T09:19:20.414Z,10.10
2019-03-19T09:21:49.681Z,10.50
2019-03-19T09:24:19.040Z,10.70
2019-03-19T09:26:48.247Z,10.40
2019-03-19T09:29:17.621Z,10.40
2019-03-19T09:31:46.972Z,10.60
2019-03-19T09:34:16.248Z,10.80
2019-03-19T09:36:45.707Z,10.50
2019-03-19T09:39:15.039Z,11.00
2019-03-19T09:41:44.219Z,11.30
2019-03-19T09:44:13.540Z,11.10
2019-03-19T09:46:42.815Z,11.00
2019-03-19T09:49:12.199Z,11.30
2019-03-19T09:51:41.569Z,11.30
2019-03-19T09:54:10.956Z,11.10
2019-03-19T09:56:40.216Z,11.00
2019-03-19T09:59:09.512Z,10.70
2019-03-19T10:01:38.707Z,11.10
2019-03-19T10:04:08.180Z,11.10
2019-03-19T10:06:37.507Z,11.00
2019-03-19T10:09:08.756Z,11.00
2019-03-19T10:11:38.080Z,10.90
2019-03-19T10:14:07.384Z,11.20
2019-03-19T10:16:36.806Z,11.50
2019-03-19T10:19:06.048Z,12.10
2019-03-19T10:21:35.445Z,12.30
2019-03-19T10:24:04.995Z,12.50
2019-03-19T10:26:34.178Z,12.20
2019-03-19T10:29:03.600Z,12.30
2019-03-19T10:31:32.944Z,11.80
2019-03-19T10:34:02.237Z,11.60
2019-03-19T10:36:31.652Z,11.80
2019-03-19T10:39:01.048Z,10.70
2019-03-19T10:41:30.468Z,10.40
2019-03-19T10:43:59.873Z,10.10
2019-03-19T10:46:31.903Z,10.00
2019-03-19T10:49:01.292Z,10.10
2019-03-19T10:51:30.727Z,10.60
2019-03-19T10:54:00.142Z,10.20
2019-03-19T10:56:29.472Z,10.90
2019-03-19T10:58:58.918Z,11.10
2019-03-19T11:01:28.370Z,10.20
2019-03-19T11:03:57.814Z,10.30
2019-03-19T11:06:27.224Z,10.20
2019-03-19T11:08:57.836Z,10.30
2019-03-19T11:11:27.180Z,10.50
2019-03-19T11:13:56.539Z,11.00
2019-03-19T11:16:25.920Z,11.30
2019-03-19T11:18:55.243Z,11.30
2019-03-19T11:21:24.469Z,11.00
2019-03-19T11:23:53.855Z,10.90
2019-03-19T11:26:23.195Z,10.60
2019-03-19T11:28:52.517Z,10.60
2019-03-19T11:31:21.907Z,10.50
2019-03-19T11:33:51.250Z,10.30
2019-03-19T11:36:20.627Z,9.80
2019-03-19T11:38:49.909Z,9.70
2019-03-19T11:41:19.260Z,9.50
2019-03-19T11:43:48.683Z,9.40
2019-03-19T11:46:18.014Z,9.30
2019-03-19T11:48:47.413Z,9.00
2019-03-19T11:51:16.765Z,8.90
2019-03-19T11:53:46.006Z,9.60
2019-03-19T11:56:15.445Z,10.20
2019-03-19T11:58:44.974Z,10.70
2019-03-19T12:01:14.378Z,11.00
2019-03-19T12:03:43.777Z,10.70
2019-03-19T12:06:13.297Z,10.70
2019-03-19T12:08:42.715Z,10.60
2019-03-19T12:11:12.149Z,10.50
2019-03-19T12:13:43.755Z,10.20
2019-03-19T12:16:13.299Z,10.00
2019-03-19T12:18:42.679Z,9.80
2019-03-19T12:21:12.117Z,9.70
2019-03-19T12:23:41.494Z,9.70
2019-03-19T12:26:10.853Z,9.80
2019-03-19T12:28:40.251Z,10.20
2019-03-19T12:31:09.605Z,10.50
2019-03-19T12:33:41.104Z,10.70
2019-03-19T12:36:09.949Z,11.20
2019-03-19T12:38:39.237Z,11.30
2019-03-19T12:41:08.585Z,12.00
2019-03-19T12:43:37.994Z,11.60
2019-03-19T12:46:07.307Z,11.40
2019-03-19T12:48:36.690Z,11.20
2019-03-19T12:51:06.023Z,11.00
2019-03-19T12:53:35.337Z,11.00
2019-03-19T12:56:04.724Z,11.00
2019-03-19T12:58:33.971Z,10.50
2019-03-19T13:01:03.400Z,10.40
2019-03-19T13:03:32.826Z,10.30
2019-03-19T13:06:02.093Z,10.30
2019-03-19T13:08:31.549Z,10.00
2019-03-19T13:11:00.894Z,10.00
2019-03-19T13:13:30.233Z,9.90
2019-03-19T13:15:59.804Z,9.90
2019-03-19T13:18:29.157Z,10.20
2019-03-19T13:20:58.494Z,10.90
2019-03-19T13:23:27.842Z,11.80
2019-03-19T13:25:57.250Z,12.80
2019-03-19T13:28:26.629Z,13.60
2019-03-19T13:30:56.044Z,14.50
2019-03-19T13:33:25.330Z,15.00
2019-03-19T13:35:54.695Z,14.10
2019-03-19T13:38:23.895Z,13.40
2019-03-19T13:40:53.321Z,12.80
2019-03-19T13:43:22.605Z,11.80
2019-03-19T13:45:51.975Z,11.50
2019-03-19T13:48:21.410Z,11.20
2019-03-19T13:50:50.973Z,11.00
2019-03-19T13:53:20.422Z,11.70
2019-03-19T13:55:49.796Z,12.20
2019-03-19T13:58:19.043Z,12.20
2019-03-19T14:00:55.631Z,12.40
2019-03-19T14:03:19.472Z,12.10
2019-03-19T14:05:48.830Z,12.10
2019-03-19T14:08:18.269Z,11.60
2019-03-19T14:10:47.614Z,11.50
2019-03-19T14:13:16.973Z,11.60
2019-03-19T14:15:46.370Z,11.80
2019-03-19T14:18:15.737Z,12.20
2019-03-19T14:20:45.111Z,13.10
2019-03-19T14:23:14.456Z,14.40
2019-03-19T14:25:43.942Z,15.50
2019-03-19T14:28:13.215Z,16.20
2019-03-19T14:30:42.739Z,17.00
2019-03-19T14:33:12.161Z,17.70
2019-03-19T14:35:41.504Z,17.50
2019-03-19T14:38:10.882Z,17.10
2019-03-19T14:40:40.234Z,17.30
2019-03-19T14:43:09.471Z,17.40
2019-03-19T14:45:38.906Z,17.40
2019-03-19T14:48:08.194Z,17.40
2019-03-19T14:50:37.449Z,17.20
2019-03-19T14:53:07.091Z,16.30
2019-03-19T14:55:36.702Z,16.20
2019-03-19T14:58:06.374Z,16.10
2019-03-19T15:00:36.057Z,15.20
2019-03-19T15:03:05.591Z,14.80
2019-03-19T15:05:34.992Z,13.90
2019-03-19T15:08:04.339Z,13.70
2019-03-19T15:10:33.635Z,12.80
2019-03-19T15:13:03.017Z,12.90
2019-03-19T15:15:32.297Z,12.50
2019-03-19T15:18:01.598Z,12.70
2019-03-19T15:20:30.989Z,13.50
2019-03-19T15:23:00.285Z,14.40
2019-03-19T15:25:29.562Z,15.20
2019-03-19T15:27:58.892Z,15.20
2019-03-19T15:30:28.198Z,15.00
2019-03-19T15:32:57.589Z,15.10
2019-03-19T15:35:26.789Z,15.30
2019-03-19T15:37:56.180Z,15.00
2019-03-19T15:40:25.576Z,14.70
2019-03-19T15:42:54.898Z,14.10
2019-03-19T15:45:24.279Z,13.60
2019-03-19T15:47:53.613Z,13.20
2019-03-19T15:50:22.897Z,12.80
2019-03-19T15:52:52.152Z,12.50
2019-03-19T15:55:21.501Z,12.10
2019-03-19T15:57:50.926Z,12.00
2019-03-19T16:00:20.290Z,12.60
2019-03-19T16:02:49.546Z,13.50
2019-03-19T16:05:19.088Z,14.30
2019-03-19T16:07:48.438Z,15.20
2019-03-19T16:10:17.815Z,15.60
2019-03-19T16:12:47.266Z,16.10
2019-03-19T16:15:16.579Z,16.50
2019-03-19T16:17:45.885Z,16.50
2019-03-19T16:20:15.549Z,16.10
2019-03-19T16:22:44.803Z,16.00
2019-03-19T16:25:14.337Z,15.90
2019-03-19T16:27:43.662Z,15.70
2019-03-19T16:30:14.070Z,15.50
2019-03-19T16:32:43.714Z,14.10
2019-03-19T16:35:13.210Z,13.80
2019-03-19T16:37:42.695Z,13.50
2019-03-19T16:40:14.731Z,13.00
2019-03-19T16:42:44.078Z,12.90
2019-03-19T16:45:13.613Z,12.80
2019-03-19T16:47:42.941Z,12.40
2019-03-19T16:50:13.274Z,12.30
2019-03-19T16:52:42.658Z,12.10
2019-03-19T16:55:12.328Z,11.50
2019-03-19T16:57:41.745Z,11.10
2019-03-19T17:00:13.569Z,10.50
2019-03-19T17:02:42.815Z,10.20
2019-03-19T17:05:12.245Z,9.90
2019-03-19T17:07:41.704Z,9.70
2019-03-19T17:10:12.156Z,9.60
2019-03-19T17:12:42.079Z,9.50
2019-03-19T17:15:11.822Z,9.40
2019-03-19T17:17:41.309Z,9.30
2019-03-19T17:20:11.823Z,9.20
2019-03-19T17:22:41.183Z,9.10
2019-03-19T17:25:13.320Z,8.90
2019-03-19T17:27:42.695Z,8.80
2019-03-19T17:30:17.276Z,8.60
2019-03-19T17:32:46.847Z,8.40
2019-03-19T17:35:16.187Z,8.30
2019-03-19T17:37:45.608Z,8.20
2019-03-19T17:40:15.152Z,8.10
2019-03-19T17:42:44.540Z,8.00
2019-03-19T17:45:14.052Z,7.90
2019-03-19T17:47:43.395Z,7.80
2019-03-19T17:50:15.189Z,7.70
2019-03-19T17:52:44.722Z,7.50
2019-03-19T17:55:14.172Z,7.40
2019-03-19T17:57:43.548Z,7.30
2019-03-19T18:00:15.769Z,7.20
2019-03-19T18:02:45.224Z,7.10
2019-03-19T18:05:14.608Z,7.00
2019-03-19T18:07:44.003Z,6.90
2019-03-19T18:10:13.560Z,6.80
2019-03-19T18:12:42.972Z,6.60
2019-03-19T18:15:12.335Z,6.50
2019-03-19T18:17:41.675Z,6.40
2019-03-19T18:20:11.252Z,6.30
2019-03-19T18:22:40.568Z,6.20
2019-03-19T18:25:10.288Z,6.10
2019-03-19T18:27:39.705Z,5.90
2019-03-19T18:30:11.191Z,5.80
2019-03-19T18:32:41.104Z,5.80
2019-03-19T18:35:10.511Z,5.70
2019-03-19T18:37:39.809Z,5.60
2019-03-19T18:40:09.382Z,5.50
2019-03-19T18:42:44.714Z,5.40
2019-03-19T18:45:14.294Z,5.30
2019-03-19T18:47:45.476Z,5.20
2019-03-19T18:50:15.290Z,5.10
2019-03-19T18:52:47.364Z,5.00
2019-03-19T18:55:17.513Z,4.90
2019-03-19T18:57:49.196Z,4.80
2019-03-19T19:00:18.701Z,4.80
2019-03-19T19:02:50.376Z,4.60
2019-03-19T19:05:19.559Z,4.60
2019-03-19T19:07:50.101Z,4.50
2019-03-19T19:10:21.393Z,4.50
2019-03-19T19:12:51.698Z,4.40
2019-03-19T19:15:20.965Z,4.30
2019-03-19T19:17:50.356Z,4.30
2019-03-19T19:20:21.513Z,4.20
2019-03-19T19:22:51.011Z,4.10
2019-03-19T19:25:20.478Z,4.10
2019-03-19T19:27:50.020Z,3.90
2019-03-19T19:30:19.743Z,3.90
2019-03-19T19:33:00.454Z,3.80
2019-03-19T19:35:21.932Z,3.70
2019-03-19T19:37:51.857Z,3.60
2019-03-19T19:40:21.258Z,3.50
2019-03-19T19:42:53.017Z,3.40
2019-03-19T19:45:24.003Z,3.30
2019-03-19T19:47:53.601Z,3.30
2019-03-19T19:50:23.010Z,3.20
2019-03-19T19:52:52.392Z,3.20
2019-03-19T19:55:21.961Z,3.10
2019-03-19T19:57:51.782Z,3.10
2019-03-19T20:00:21.121Z,3.00
2019-03-19T20:02:50.722Z,2.90
2019-03-19T20:05:20.114Z,2.80
2019-03-19T20:07:49.738Z,2.80
2019-03-19T20:10:19.160Z,2.70
2019-03-19T20:12:48.599Z,2.70
2019-03-19T20:15:18.176Z,2.60
2019-03-19T20:17:47.701Z,2.60
2019-03-19T20:20:18.035Z,2.50
2019-03-19T20:22:47.508Z,2.50
2019-03-19T20:25:17.123Z,2.40
2019-03-19T20:27:46.700Z,2.40
2019-03-19T20:30:18.033Z,2.30
2019-03-19T20:32:47.519Z,2.30
2019-03-19T20:35:16.979Z,2.30
2019-03-19T20:37:46.392Z,2.20
2019-03-19T20:40:15.898Z,2.20
2019-03-19T20:42:45.537Z,2.10
2019-03-19T20:45:16.154Z,2.00
2019-03-19T20:47:45.606Z,2.00
2019-03-19T20:50:18.074Z,2.00
2019-03-19T20:52:47.480Z,1.90
2019-03-19T20:55:16.992Z,1.80
2019-03-19T20:57:46.444Z,1.80
2019-03-19T21:00:16.783Z,1.80
2019-03-19T21:02:46.694Z,1.70
2019-03-19T21:05:17.543Z,1.70
2019-03-19T21:07:47.146Z,1.70
2019-03-19T21:10:17.903Z,1.60
2019-03-19T21:12:47.385Z,1.60
2019-03-19T21:15:32.719Z,1.50
2019-03-19T21:18:02.134Z,1.50
2019-03-19T21:20:32.456Z,1.40
2019-03-19T21:23:01.897Z,1.40
2019-03-19T21:25:31.721Z,1.30
2019-03-19T21:28:01.102Z,1.30
2019-03-19T21:30:30.530Z,1.20
2019-03-19T21:32:59.968Z,1.20
2019-03-19T21:35:29.467Z,1.20
2019-03-19T21:37:58.942Z,1.10
2019-03-19T21:40:28.332Z,1.10
2019-03-19T21:42:57.922Z,1.10
2019-03-19T21:45:27.479Z,1.10
2019-03-19T21:47:57.004Z,1.00
2019-03-19T21:50:26.654Z,1.00
2019-03-19T21:52:56.113Z,1.00
2019-03-19T21:55:25.511Z,0.90
2019-03-19T21:57:54.949Z,0.90
2019-03-19T22:00:24.434Z,0.80
2019-03-19T22:02:54.149Z,0.80
2019-03-19T22:05:23.563Z,0.70
2019-03-19T22:07:53.333Z,0.70
2019-03-19T22:10:22.782Z,0.60
2019-03-19T22:12:52.110Z,0.60
2019-03-19T22:15:21.620Z,0.60
2019-03-19T22:17:51.301Z,0.50
2019-03-19T22:20:20.721Z,0.50
2019-03-19T22:24:00.764Z,0.50
2019-03-19T22:26:30.161Z,0.50
2019-03-19T22:28:59.512Z,0.50
2019-03-19T22:31:28.903Z,0.50
2019-03-19T22:33:58.103Z,0.40
2019-03-19T22:36:27.535Z,0.40
2019-03-19T22:38:56.859Z,0.30
2019-03-19T22:41:26.308Z,0.30
2019-03-19T22:43:55.756Z,0.30
2019-03-19T22:46:25.135Z,0.20
2019-03-19T22:48:54.556Z,0.20
2019-03-19T22:51:23.987Z,0.10
2019-03-19T22:53:53.220Z,0.10
2019-03-19T22:56:22.667Z,0.10
2019-03-19T22:58:51.957Z,0.10
2019-03-19T23:01:21.236Z,0.10
2019-03-19T23:03:50.575Z,0.10
2019-03-19T23:06:19.894Z,0.10
2019-03-19T23:08:49.079Z,0.10
2019-03-19T23:11:18.884Z,0.00
2019-03-19T23:13:48.755Z,0.00
2019-03-19T23:16:18.076Z,0.00
2019-03-19T23:18:47.334Z,0.00
2019-03-19T23:21:16.669Z,0.00
2019-03-19T23:23:45.987Z,0.00
2019-03-19T23:26:15.298Z,0.00
2019-03-19T23:28:44.813Z,0.00
2019-03-19T23:31:14.240Z,0.00
2019-03-19T23:33:43.549Z,0.00
2019-03-19T23:36:13.007Z,-0.10
2019-03-19T23:38:42.278Z,-0.10
2019-03-19T23:41:11.711Z,-0.10
2019-03-19T23:43:41.027Z,-0.20
2019-03-19T23:46:10.379Z,-0.20
2019-03-19T23:48:39.688Z,-0.20
2019-03-19T23:51:09.084Z,-0.20
2019-03-19T23:53:38.400Z,-0.20
2019-03-19T23:56:07.661Z,-0.20
2019-03-19T23:58:37.060Z,-0.20
